Time;durP1;ratioP1;P1;durP2;ratioP2;P2;SDS_P1;SDS_P2;PMS_P1;PMS_P2;Temp;Humidity;BMP_temperature;BMP_pressure;BME280_temperature;BME280_humidity;BME280_pressure;Samples;Min_cycle;Max_cycle;Signal;HPM_P1;HPM_P2
2023/03/02 00:01:30;;;;;;;36.90;14.30;;;;;;;;;;4990514;28;20069;-63
2023/03/02 00:03:57;;;;;;;35.22;13.55;;;;;;;;;;4991352;28;20022;-63
2023/03/02 00:06:22;;;;;;;33.47;13.90;;;;;;;;;;4989158;28;20447;-63
2023/03/02 00:08:48;;;;;;;30.20;13.40;;;;;;;;;;4991625;28;20054;-63
2023/03/02 00:11:14;;;;;;;33.80;13.85;;;;;;;;;;4990401;28;20027;-63
2023/03/02 00:13:39;;;;;;;32.97;13.35;;;;;;;;;;4999520;28;20042;-63
2023/03/02 00:16:05;;;;;;;31.70;13.82;;;;;;;;;;4991684;28;20029;-62
2023/03/02 00:18:30;;;;;;;32.70;14.63;;;;;;;;;;5007974;28;20111;-63
2023/03/02 00:20:55;;;;;;;31.50;13.75;;;;;;;;;;4996662;28;20029;-64
2023/03/02 00:23:20;;;;;;;36.97;14.17;;;;;;;;;;4994577;28;20053;-61
2023/03/02 00:25:45;;;;;;;34.53;14.13;;;;;;;;;;4990855;28;20021;-62
2023/03/02 00:28:11;;;;;;;37.13;14.80;;;;;;;;;;4993176;28;20022;-61
2023/03/02 00:30:36;;;;;;;36.50;14.07;;;;;;;;;;4998607;28;20057;-61
2023/03/02 00:33:02;;;;;;;33.17;13.27;;;;;;;;;;5000764;28;20026;-62
2023/03/02 00:35:27;;;;;;;34.67;14.27;;;;;;;;;;4994089;28;20048;-62
2023/03/02 00:37:52;;;;;;;33.95;14.25;;;;;;;;;;4998441;28;20109;-62
2023/03/02 00:40:17;;;;;;;36.33;14.20;;;;;;;;;;4995064;28;20602;-61
2023/03/02 00:42:42;;;;;;;34.40;14.50;;;;;;;;;;4990882;28;20030;-61
2023/03/02 00:45:08;;;;;;;33.63;15.18;;;;;;;;;;4988931;28;20386;-62
2023/03/02 00:47:34;;;;;;;34.75;14.40;;;;;;;;;;4986254;28;20031;-62
2023/03/02 00:49:59;;;;;;;35.25;14.60;;;;;;;;;;4997163;28;20109;-62
2023/03/02 00:52:25;;;;;;;34.90;14.32;;;;;;;;;;4995066;28;20212;-62
2023/03/02 00:54:50;;;;;;;35.15;15.20;;;;;;;;;;5001787;28;20026;-62
2023/03/02 00:57:15;;;;;;;35.87;14.00;;;;;;;;;;4991062;28;20026;-61
2023/03/02 00:59:40;;;;;;;34.30;14.03;;;;;;;;;;4990035;28;20026;-61
2023/03/02 01:02:06;;;;;;;33.83;14.23;;;;;;;;;;4999733;28;20038;-60
2023/03/02 01:04:38;;;;;;;34.47;13.80;;;;;;;;;;4999480;28;20426;-62
2023/03/02 01:07:05;;;;;;;34.53;14.77;;;;;;;;;;4993444;28;20507;-61
2023/03/02 01:09:31;;;;;;;33.10;13.90;;;;;;;;;;4992028;28;20034;-62
2023/03/02 01:11:56;;;;;;;36.97;14.77;;;;;;;;;;4989424;28;20360;-62
2023/03/02 01:14:21;;;;;;;32.90;13.50;;;;;;;;;;4991171;28;20021;-63
2023/03/02 01:16:47;;;;;;;31.80;13.15;;;;;;;;;;4990537;28;20022;-62
2023/03/02 01:19:13;;;;;;;33.73;13.37;;;;;;;;;;4998742;28;20033;-60
2023/03/02 01:21:38;;;;;;;33.17;12.38;;;;;;;;;;4991045;28;20030;-60
2023/03/02 01:24:03;;;;;;;28.20;11.63;;;;;;;;;;4994108;28;20032;-61
2023/03/02 01:26:28;;;;;;;30.23;11.82;;;;;;;;;;4989427;28;20041;-61
2023/03/02 01:28:54;;;;;;;29.55;13.43;;;;;;;;;;4995280;28;20060;-61
2023/03/02 01:31:22;;;;;;;34.35;13.88;;;;;;;;;;4988948;28;20018;-62
2023/03/02 01:33:47;;;;;;;31.63;14.13;;;;;;;;;;4995400;28;20386;-62
2023/03/02 01:36:13;;;;;;;33.40;14.13;;;;;;;;;;4993675;28;20022;-62
2023/03/02 01:38:38;;;;;;;28.95;12.65;;;;;;;;;;4990383;28;20053;-62
2023/03/02 01:41:03;;;;;;;35.50;13.35;;;;;;;;;;4990828;28;20026;-61
2023/03/02 01:43:29;;;;;;;31.33;13.18;;;;;;;;;;4991586;28;20382;-62
2023/03/02 01:46:03;;;;;;;33.67;13.67;;;;;;;;;;4991873;28;20025;-62
2023/03/02 01:48:28;;;;;;;31.38;13.30;;;;;;;;;;4990336;28;20019;-62
2023/03/02 01:50:53;;;;;;;35.00;14.60;;;;;;;;;;4994774;28;20027;-62
2023/03/02 01:53:19;;;;;;;33.65;13.75;;;;;;;;;;4991555;28;20402;-60
2023/03/02 01:55:45;;;;;;;31.13;13.50;;;;;;;;;;4988644;28;20069;-59
2023/03/02 01:58:12;;;;;;;32.58;13.20;;;;;;;;;;4990886;28;20022;-60
2023/03/02 02:00:38;;;;;;;33.42;13.77;;;;;;;;;;4989180;28;20490;-62
2023/03/02 02:03:23;;;;;;;31.27;12.90;;;;;;;;;;4987265;28;20097;-62
2023/03/02 02:05:59;;;;;;;31.98;13.20;;;;;;;;;;4985797;28;20042;-62
2023/03/02 02:08:24;;;;;;;36.40;13.93;;;;;;;;;;4988660;28;20029;-63
2023/03/02 02:10:50;;;;;;;33.53;13.48;;;;;;;;;;4990052;28;20026;-61
2023/03/02 02:13:15;;;;;;;33.67;13.05;;;;;;;;;;4988312;28;20394;-60
2023/03/02 02:15:40;;;;;;;35.13;13.60;;;;;;;;;;4987858;28;20025;-60
2023/03/02 02:18:06;;;;;;;30.83;12.55;;;;;;;;;;4990720;28;20027;-62
2023/03/02 02:20:43;;;;;;;34.47;13.45;;;;;;;;;;4986402;28;20026;-61
2023/03/02 02:23:24;;;;;;;32.22;13.18;;;;;;;;;;4988330;28;20488;-62
2023/03/02 02:25:54;;;;;;;35.55;13.95;;;;;;;;;;4989011;28;20413;-63
2023/03/02 02:28:26;;;;;;;35.58;15.18;;;;;;;;;;4989760;28;20094;-62
2023/03/02 02:30:56;;;;;;;35.50;14.40;;;;;;;;;;4982423;28;20759;-61
2023/03/02 02:33:22;;;;;;;32.45;13.35;;;;;;;;;;4989279;28;20030;-62
2023/03/02 02:35:47;;;;;;;32.90;14.10;;;;;;;;;;4985129;28;20029;-62
2023/03/02 02:38:14;;;;;;;32.67;14.40;;;;;;;;;;4987074;28;20031;-61
2023/03/02 02:40:39;;;;;;;31.52;12.85;;;;;;;;;;4996886;28;20030;-61
2023/03/02 02:43:05;;;;;;;33.88;14.32;;;;;;;;;;4991986;28;20049;-62
2023/03/02 02:45:30;;;;;;;31.40;13.60;;;;;;;;;;4993447;28;20071;-62
2023/03/02 02:47:56;;;;;;;33.13;12.93;;;;;;;;;;4994176;28;20033;-61
2023/03/02 02:50:25;;;;;;;30.80;12.75;;;;;;;;;;4991397;28;20089;-62
2023/03/02 02:53:04;;;;;;;32.50;13.93;;;;;;;;;;4982025;28;20023;-62
2023/03/02 02:55:30;;;;;;;29.75;12.85;;;;;;;;;;4998587;28;20022;-61
2023/03/02 02:57:57;;;;;;;30.17;12.57;;;;;;;;;;4992592;28;20049;-62
2023/03/02 03:00:23;;;;;;;32.05;12.88;;;;;;;;;;4991612;28;20073;-62
2023/03/02 03:02:52;;;;;;;31.25;12.45;;;;;;;;;;4991978;28;20517;-62
2023/03/02 03:05:17;;;;;;;28.70;11.90;;;;;;;;;;4991395;28;20390;-62
2023/03/02 03:07:42;;;;;;;30.17;12.77;;;;;;;;;;4992431;28;20018;-62
2023/03/02 03:10:13;;;;;;;29.93;11.70;;;;;;;;;;4988717;28;20026;-62
2023/03/02 03:12:38;;;;;;;27.10;11.70;;;;;;;;;;5004811;28;20042;-62
2023/03/02 03:15:04;;;;;;;30.88;13.00;;;;;;;;;;5002967;28;20053;-62
2023/03/02 03:17:29;;;;;;;30.85;12.88;;;;;;;;;;4992058;28;20422;-62
2023/03/02 03:20:04;;;;;;;31.70;12.57;;;;;;;;;;4998832;28;20018;-62
2023/03/02 03:22:30;;;;;;;30.42;12.52;;;;;;;;;;4990139;28;20018;-62
2023/03/02 03:24:55;;;;;;;30.77;12.33;;;;;;;;;;4987938;28;20015;-62
2023/03/02 03:27:20;;;;;;;31.13;11.93;;;;;;;;;;4990005;28;20054;-62
2023/03/02 03:29:47;;;;;;;32.05;13.05;;;;;;;;;;4992915;28;20386;-63
2023/03/02 03:32:12;;;;;;;30.80;11.88;;;;;;;;;;4991460;28;20367;-62
2023/03/02 03:34:39;;;;;;;34.30;13.18;;;;;;;;;;4991835;28;20076;-62
2023/03/02 03:37:04;;;;;;;30.05;13.05;;;;;;;;;;4990410;28;20026;-61
2023/03/02 03:39:30;;;;;;;32.38;12.77;;;;;;;;;;4992326;28;20052;-62
2023/03/02 03:41:55;;;;;;;30.80;12.30;;;;;;;;;;4991597;28;20041;-62
2023/03/02 03:44:20;;;;;;;33.30;13.27;;;;;;;;;;4991663;28;20042;-63
2023/03/02 03:46:46;;;;;;;33.10;13.18;;;;;;;;;;4991314;28;20018;-62
2023/03/02 03:49:11;;;;;;;30.30;12.43;;;;;;;;;;4995016;28;20104;-62
2023/03/02 03:51:36;;;;;;;34.33;13.60;;;;;;;;;;4991744;28;20026;-61
2023/03/02 03:54:02;;;;;;;32.00;12.85;;;;;;;;;;4994735;28;20120;-61
2023/03/02 03:56:28;;;;;;;36.65;12.85;;;;;;;;;;4993814;28;20109;-62
2023/03/02 03:59:05;;;;;;;34.05;12.40;;;;;;;;;;4989452;28;20065;-62
2023/03/02 04:01:33;;;;;;;32.28;12.52;;;;;;;;;;4988180;28;20022;-62
2023/03/02 04:04:00;;;;;;;35.92;13.45;;;;;;;;;;4996325;28;20046;-61
2023/03/02 04:06:26;;;;;;;31.52;12.45;;;;;;;;;;4992836;28;20063;-61
2023/03/02 04:08:51;;;;;;;31.98;12.13;;;;;;;;;;4989178;28;20089;-63
2023/03/02 04:11:16;;;;;;;31.67;12.68;;;;;;;;;;4989482;28;20483;-61
2023/03/02 04:13:41;;;;;;;31.95;12.68;;;;;;;;;;4993298;28;20053;-62
2023/03/02 04:16:06;;;;;;;32.40;12.35;;;;;;;;;;4989077;28;20034;-61
2023/03/02 04:18:31;;;;;;;37.08;12.88;;;;;;;;;;4997909;28;20413;-62
2023/03/02 04:20:56;;;;;;;34.00;12.02;;;;;;;;;;4998978;28;20026;-61
2023/03/02 04:23:22;;;;;;;32.33;12.88;;;;;;;;;;5008080;28;20044;-59
2023/03/02 04:25:47;;;;;;;34.08;12.27;;;;;;;;;;5001444;28;20072;-62
2023/03/02 04:28:12;;;;;;;31.65;11.63;;;;;;;;;;4993095;28;20038;-62
2023/03/02 04:30:37;;;;;;;31.20;12.07;;;;;;;;;;4997820;28;20038;-61
2023/03/02 04:33:02;;;;;;;27.02;11.73;;;;;;;;;;4987608;28;20038;-61
2023/03/02 04:35:28;;;;;;;31.83;12.32;;;;;;;;;;4990529;28;20026;-62
2023/03/02 04:37:53;;;;;;;30.87;12.00;;;;;;;;;;4995610;28;20022;-61
2023/03/02 04:40:18;;;;;;;36.03;12.68;;;;;;;;;;4994335;28;20453;-62
2023/03/02 04:42:43;;;;;;;33.43;12.30;;;;;;;;;;4991482;28;20015;-61
2023/03/02 04:45:09;;;;;;;31.87;12.83;;;;;;;;;;4990303;28;20072;-62
2023/03/02 04:47:34;;;;;;;34.33;13.77;;;;;;;;;;4989423;28;20402;-62
2023/03/02 04:49:59;;;;;;;31.50;12.40;;;;;;;;;;4987518;28;20042;-63
2023/03/02 04:52:24;;;;;;;29.67;12.75;;;;;;;;;;4989727;28;20042;-61
2023/03/02 04:54:49;;;;;;;29.65;12.32;;;;;;;;;;4989296;28;20517;-63
2023/03/02 04:57:15;;;;;;;31.83;12.47;;;;;;;;;;4991527;28;20072;-63
2023/03/02 04:59:40;;;;;;;31.87;12.27;;;;;;;;;;4988172;28;21035;-62
2023/03/02 05:02:05;;;;;;;32.75;11.93;;;;;;;;;;4989915;28;20034;-62
2023/03/02 05:04:31;;;;;;;31.42;12.73;;;;;;;;;;4989558;28;20294;-62
2023/03/02 05:06:56;;;;;;;28.60;11.75;;;;;;;;;;4991382;28;20022;-62
2023/03/02 05:09:26;;;;;;;30.98;12.35;;;;;;;;;;4988479;28;20026;-61
2023/03/02 05:11:51;;;;;;;29.73;11.07;;;;;;;;;;4988490;28;20030;-62
2023/03/02 05:14:16;;;;;;;28.02;11.30;;;;;;;;;;4989160;28;20033;-62
2023/03/02 05:16:41;;;;;;;30.45;13.27;;;;;;;;;;4993060;28;20066;-61
2023/03/02 05:19:08;;;;;;;33.93;12.03;;;;;;;;;;4991131;28;20037;-61
2023/03/02 05:21:33;;;;;;;33.95;11.95;;;;;;;;;;4986854;28;20490;-61
2023/03/02 05:23:58;;;;;;;34.50;12.63;;;;;;;;;;4986670;28;20030;-61
2023/03/02 05:26:23;;;;;;;28.47;11.57;;;;;;;;;;4983563;28;20401;-62
2023/03/02 05:28:49;;;;;;;29.60;11.77;;;;;;;;;;4987746;28;20371;-62
2023/03/02 05:31:27;;;;;;;34.33;12.10;;;;;;;;;;4992775;28;20400;-62
2023/03/02 05:33:53;;;;;;;;;;;;;;;;;;4993005;28;20025;-62
2023/03/02 05:36:18;;;;;;;31.88;11.85;;;;;;;;;;4993402;28;19910;-61
2023/03/02 05:38:43;;;;;;;27.93;11.50;;;;;;;;;;4985659;28;20018;-60
2023/03/02 05:41:08;;;;;;;30.33;11.33;;;;;;;;;;4993994;28;20028;-62
2023/03/02 05:43:34;;;;;;;27.43;11.13;;;;;;;;;;4983586;28;20041;-61
2023/03/02 05:46:00;;;;;;;28.92;11.30;;;;;;;;;;4985039;28;20046;-62
2023/03/02 05:48:25;;;;;;;30.67;11.90;;;;;;;;;;4985402;28;20026;-62
2023/03/02 05:50:51;;;;;;;31.88;12.10;;;;;;;;;;4988338;28;20080;-63
2023/03/02 05:53:16;;;;;;;29.93;11.70;;;;;;;;;;4987675;28;20022;-63
2023/03/02 05:55:41;;;;;;;30.70;11.43;;;;;;;;;;4999244;28;20116;-63
2023/03/02 05:58:07;;;;;;;29.10;11.77;;;;;;;;;;4992190;28;20041;-66
2023/03/02 06:00:33;;;;;;;29.05;11.32;;;;;;;;;;4976349;28;20107;-62
2023/03/02 06:02:58;;;;;;;32.95;12.55;;;;;;;;;;4985300;28;20022;-62
2023/03/02 06:05:23;;;;;;;31.30;11.40;;;;;;;;;;4982272;28;20050;-62
2023/03/02 06:07:49;;;;;;;28.60;10.80;;;;;;;;;;4984385;28;20109;-61
2023/03/02 06:10:14;;;;;;;29.60;11.32;;;;;;;;;;4985317;28;20568;-62
2023/03/02 06:12:39;;;;;;;28.23;11.30;;;;;;;;;;4985451;28;20077;-61
2023/03/02 06:15:05;;;;;;;34.15;13.65;;;;;;;;;;4984638;28;20073;-62
2023/03/02 06:17:30;;;;;;;34.28;13.18;;;;;;;;;;5000988;28;20026;-63
2023/03/02 06:19:56;;;;;;;31.73;12.85;;;;;;;;;;5005961;28;20029;-62
2023/03/02 06:22:21;;;;;;;29.60;11.73;;;;;;;;;;4995886;28;20025;-61
2023/03/02 06:24:46;;;;;;;31.97;11.87;;;;;;;;;;5007291;28;20101;-61
2023/03/02 06:27:12;;;;;;;34.33;13.68;;;;;;;;;;5013787;28;20519;-62
2023/03/02 06:29:37;;;;;;;31.50;12.80;;;;;;;;;;4998523;28;20105;-60
2023/03/02 06:32:02;;;;;;;30.60;12.73;;;;;;;;;;4992188;28;20375;-62
2023/03/02 06:34:28;;;;;;;35.03;12.95;;;;;;;;;;4989889;28;20073;-63
2023/03/02 06:36:54;;;;;;;31.92;12.63;;;;;;;;;;4994195;28;20105;-63
2023/03/02 06:39:19;;;;;;;30.00;11.57;;;;;;;;;;4994466;28;20018;-63
2023/03/02 06:41:45;;;;;;;30.65;13.00;;;;;;;;;;4994415;28;20072;-62
2023/03/02 06:44:10;;;;;;;29.25;12.20;;;;;;;;;;4993400;28;20033;-62
2023/03/02 06:46:35;;;;;;;31.83;12.23;;;;;;;;;;4990326;28;20030;-61
2023/03/02 06:49:01;;;;;;;28.80;12.13;;;;;;;;;;4993135;28;20620;-62
2023/03/02 06:51:26;;;;;;;28.20;11.68;;;;;;;;;;4993713;28;20074;-61
2023/03/02 06:53:51;;;;;;;31.73;12.50;;;;;;;;;;4992748;28;20489;-61
2023/03/02 06:56:16;;;;;;;29.10;11.90;;;;;;;;;;5007622;28;20116;-61
2023/03/02 06:58:41;;;;;;;26.80;10.75;;;;;;;;;;5006819;28;20034;-61
2023/03/02 07:01:06;;;;;;;27.27;12.57;;;;;;;;;;5000669;28;20462;-62
2023/03/02 07:03:32;;;;;;;35.88;12.52;;;;;;;;;;5001692;28;20057;-61
2023/03/02 07:05:57;;;;;;;33.40;12.88;;;;;;;;;;4984322;28;20018;-61
2023/03/02 07:08:22;;;;;;;32.80;12.43;;;;;;;;;;4993367;28;20026;-61
2023/03/02 07:10:48;;;;;;;32.42;12.02;;;;;;;;;;4989089;28;20038;-61
2023/03/02 07:13:13;;;;;;;29.87;12.00;;;;;;;;;;4993519;28;20022;-62
2023/03/02 07:15:38;;;;;;;32.53;13.27;;;;;;;;;;4993851;28;20476;-63
2023/03/02 07:18:04;;;;;;;34.72;13.07;;;;;;;;;;4972156;28;20030;-61
2023/03/02 07:20:29;;;;;;;34.37;13.13;;;;;;;;;;4990949;28;20441;-62
2023/03/02 07:22:54;;;;;;;32.70;12.80;;;;;;;;;;5003343;28;20023;-62
2023/03/02 07:25:20;;;;;;;35.23;12.77;;;;;;;;;;4992019;28;20090;-62
2023/03/02 07:27:45;;;;;;;32.37;12.93;;;;;;;;;;5011522;28;20014;-63
2023/03/02 07:30:10;;;;;;;34.55;12.40;;;;;;;;;;4991970;28;20030;-62
2023/03/02 07:32:35;;;;;;;34.45;12.90;;;;;;;;;;4991726;28;20551;-62
2023/03/02 07:35:01;;;;;;;33.50;13.18;;;;;;;;;;4991576;28;20014;-61
2023/03/02 07:37:26;;;;;;;35.30;12.43;;;;;;;;;;4991843;28;20022;-62
2023/03/02 07:39:51;;;;;;;33.80;12.50;;;;;;;;;;4992897;28;20371;-63
2023/03/02 07:42:16;;;;;;;30.23;11.95;;;;;;;;;;4991593;28;20125;-62
2023/03/02 07:44:41;;;;;;;30.60;12.30;;;;;;;;;;4991071;28;20724;-62
2023/03/02 07:47:07;;;;;;;35.40;12.70;;;;;;;;;;4991831;28;20080;-62
2023/03/02 07:49:34;;;;;;;29.58;11.85;;;;;;;;;;4991990;28;20065;-62
2023/03/02 07:51:59;;;;;;;35.40;13.48;;;;;;;;;;4999027;28;20026;-62
2023/03/02 07:54:26;;;;;;;36.42;12.70;;;;;;;;;;4994172;28;20022;-63
2023/03/02 07:56:51;;;;;;;32.65;13.45;;;;;;;;;;4988953;28;20030;-62
2023/03/02 07:59:17;;;;;;;31.90;13.10;;;;;;;;;;4990496;28;20109;-62
2023/03/02 08:01:42;;;;;;;29.73;13.18;;;;;;;;;;4989662;28;20030;-67
2023/03/02 08:04:07;;;;;;;29.43;12.37;;;;;;;;;;5004915;28;20382;-62
2023/03/02 08:06:32;;;;;;;30.67;13.00;;;;;;;;;;5012146;28;20366;-62
2023/03/02 08:08:59;;;;;;;34.45;12.77;;;;;;;;;;5012502;28;20486;-62
2023/03/02 08:11:24;;;;;;;35.53;12.68;;;;;;;;;;5012227;28;20437;-62
2023/03/02 08:13:49;;;;;;;28.50;11.80;;;;;;;;;;5006388;28;20022;-62
2023/03/02 08:16:14;;;;;;;31.00;12.25;;;;;;;;;;4991062;28;20098;-63
2023/03/02 08:18:40;;;;;;;31.97;12.77;;;;;;;;;;4992780;28;20105;-63
2023/03/02 08:21:12;;;;;;;30.63;11.60;;;;;;;;;;4992367;28;20037;-63
2023/03/02 08:23:37;;;;;;;31.75;13.13;;;;;;;;;;4991813;28;20101;-63
2023/03/02 08:26:03;;;;;;;31.45;12.80;;;;;;;;;;4992546;28;20102;-63
2023/03/02 08:28:28;;;;;;;31.00;12.87;;;;;;;;;;4991352;28;20548;-62
2023/03/02 08:30:54;;;;;;;35.83;13.65;;;;;;;;;;4991126;28;20375;-61
2023/03/02 08:33:19;;;;;;;30.95;12.60;;;;;;;;;;4990699;28;20018;-61
2023/03/02 08:35:52;;;;;;;32.38;12.95;;;;;;;;;;4991213;28;20093;-61
2023/03/02 08:38:18;;;;;;;34.40;13.77;;;;;;;;;;4987588;28;20022;-62
2023/03/02 08:40:43;;;;;;;35.92;12.88;;;;;;;;;;4992436;28;20497;-61
2023/03/02 08:43:08;;;;;;;30.88;12.23;;;;;;;;;;4984784;28;20026;-62
2023/03/02 08:45:33;;;;;;;35.85;14.25;;;;;;;;;;4989896;28;20080;-62
2023/03/02 08:47:58;;;;;;;31.07;13.67;;;;;;;;;;4992259;28;20592;-62
2023/03/02 08:50:23;;;;;;;34.80;13.65;;;;;;;;;;4991220;28;20060;-61
2023/03/02 08:52:48;;;;;;;34.17;14.50;;;;;;;;;;4991644;28;20382;-62
2023/03/02 08:55:14;;;;;;;35.60;13.68;;;;;;;;;;4990320;28;20034;-62
2023/03/02 08:57:40;;;;;;;35.87;14.27;;;;;;;;;;4991604;28;20022;-62
2023/03/02 09:00:08;;;;;;;34.85;13.68;;;;;;;;;;4990557;28;20301;-63
2023/03/02 09:02:33;;;;;;;37.92;15.02;;;;;;;;;;4990506;28;20394;-62
2023/03/02 09:04:58;;;;;;;34.08;13.70;;;;;;;;;;4990306;28;20022;-62
2023/03/02 09:07:23;;;;;;;33.67;13.63;;;;;;;;;;4991573;28;20397;-61
2023/03/02 09:09:48;;;;;;;35.38;14.18;;;;;;;;;;4987151;28;20054;-61
2023/03/02 09:12:13;;;;;;;32.80;13.97;;;;;;;;;;4987012;28;20144;-62
2023/03/02 09:14:38;;;;;;;35.92;13.95;;;;;;;;;;4989496;28;20085;-61
2023/03/02 09:17:04;;;;;;;41.00;14.35;;;;;;;;;;4992075;28;20026;-62
2023/03/02 09:19:29;;;;;;;36.97;14.48;;;;;;;;;;4992282;28;20022;-62
2023/03/02 09:21:54;;;;;;;35.50;13.45;;;;;;;;;;4991607;28;20026;-62
2023/03/02 09:24:19;;;;;;;35.00;14.60;;;;;;;;;;4982670;28;20030;-63
2023/03/02 09:26:45;;;;;;;40.40;15.63;;;;;;;;;;4990753;28;20359;-61
2023/03/02 09:29:10;;;;;;;37.67;14.93;;;;;;;;;;4991127;28;20023;-63
2023/03/02 09:31:35;;;;;;;40.60;15.03;;;;;;;;;;4989393;28;20041;-62
2023/03/02 09:34:00;;;;;;;35.88;15.52;;;;;;;;;;4990920;28;20077;-62
2023/03/02 09:36:26;;;;;;;38.97;14.53;;;;;;;;;;4991413;28;20010;-61
2023/03/02 09:38:51;;;;;;;35.25;14.55;;;;;;;;;;4988324;28;20022;-61
2023/03/02 09:41:19;;;;;;;34.08;15.13;;;;;;;;;;4991155;28;20023;-61
2023/03/02 09:44:03;;;;;;;34.33;13.63;;;;;;;;;;4990650;28;20102;-62
2023/03/02 09:46:45;;;;;;;36.42;14.52;;;;;;;;;;4972256;28;20019;-62
2023/03/02 09:49:25;;;;;;;30.67;13.23;;;;;;;;;;4972267;28;20019;-62
2023/03/02 09:52:03;;;;;;;37.05;13.85;;;;;;;;;;4983385;28;20035;-64
2023/03/02 09:54:28;;;;;;;37.30;14.27;;;;;;;;;;4991830;28;20023;-62
2023/03/02 09:56:56;;;;;;;34.70;14.50;;;;;;;;;;4995602;28;20099;-62
2023/03/02 09:59:32;;;;;;;36.03;13.80;;;;;;;;;;4996341;28;20470;-62
2023/03/02 10:02:00;;;;;;;34.15;13.52;;;;;;;;;;4996810;28;20030;-62
2023/03/02 10:04:45;;;;;;;32.03;13.50;;;;;;;;;;4997184;28;20026;-63
2023/03/02 10:07:23;;;;;;;33.88;13.35;;;;;;;;;;4997113;28;20046;-63
2023/03/02 10:09:49;;;;;;;31.77;13.05;;;;;;;;;;4984441;28;20022;-63
2023/03/02 10:12:23;;;;;;;35.77;13.93;;;;;;;;;;4995033;28;20105;-62
2023/03/02 10:14:56;;;;;;;34.90;14.15;;;;;;;;;;4994111;28;20448;-62
2023/03/02 10:17:30;;;;;;;34.85;14.07;;;;;;;;;;4994735;28;20092;-62
2023/03/02 10:19:59;;;;;;;30.95;12.48;;;;;;;;;;4991671;28;20027;-62
2023/03/02 10:22:30;;;;;;;33.25;13.35;;;;;;;;;;4994546;28;20221;-62
2023/03/02 10:25:07;;;;;;;33.50;13.27;;;;;;;;;;4994348;28;20097;-64
2023/03/02 10:27:38;;;;;;;31.20;12.23;;;;;;;;;;4991587;28;20026;-63
2023/03/02 10:30:06;;;;;;;30.02;11.73;;;;;;;;;;4994440;28;20515;-63
2023/03/02 10:32:34;;;;;;;28.48;12.07;;;;;;;;;;4995139;28;20046;-62
2023/03/02 10:35:00;;;;;;;26.27;11.57;;;;;;;;;;4991767;28;20097;-62
2023/03/02 10:37:29;;;;;;;28.65;11.20;;;;;;;;;;4993289;28;20018;-63
2023/03/02 10:39:55;;;;;;;25.42;11.82;;;;;;;;;;4994336;28;20018;-63
2023/03/02 10:42:23;;;;;;;26.02;11.45;;;;;;;;;;4994140;28;20014;-62
2023/03/02 10:44:54;;;;;;;28.02;11.85;;;;;;;;;;4993743;28;20019;-63
2023/03/02 10:47:28;;;;;;;25.50;11.68;;;;;;;;;;4993281;28;20022;-61
2023/03/02 10:49:54;;;;;;;27.75;11.10;;;;;;;;;;4991828;28;20546;-62
2023/03/02 10:52:21;;;;;;;29.30;12.35;;;;;;;;;;4993753;28;20466;-63
2023/03/02 10:54:46;;;;;;;27.50;11.20;;;;;;;;;;4992981;28;20534;-62
2023/03/02 10:57:27;;;;;;;27.98;12.73;;;;;;;;;;4993739;28;20034;-62
2023/03/02 10:59:57;;;;;;;24.38;11.23;;;;;;;;;;4994081;28;20029;-62
2023/03/02 11:02:23;;;;;;;24.73;11.15;;;;;;;;;;4992991;28;20482;-63
2023/03/02 11:04:53;;;;;;;23.58;10.60;;;;;;;;;;4984185;28;20019;-62
2023/03/02 11:07:19;;;;;;;23.42;10.15;;;;;;;;;;4981136;28;20085;-62
2023/03/02 11:09:57;;;;;;;25.67;9.88;;;;;;;;;;4993447;28;20022;-63
2023/03/02 11:12:23;;;;;;;22.48;9.65;;;;;;;;;;4993922;28;20033;-62
2023/03/02 11:14:48;;;;;;;26.83;10.67;;;;;;;;;;4993406;28;20023;-63
2023/03/02 11:17:30;;;;;;;24.67;10.25;;;;;;;;;;4985777;28;20081;-62
2023/03/02 11:19:55;;;;;;;24.65;9.38;;;;;;;;;;4986601;28;20053;-62
2023/03/02 11:22:26;;;;;;;21.92;9.80;;;;;;;;;;4993564;28;20049;-62
2023/03/02 11:24:56;;;;;;;21.45;9.18;;;;;;;;;;4991974;28;20279;-62
2023/03/02 11:27:29;;;;;;;19.85;8.80;;;;;;;;;;4993135;28;20413;-63
2023/03/02 11:30:14;;;;;;;19.70;9.65;;;;;;;;;;4993523;28;20568;-63
2023/03/02 11:32:43;;;;;;;19.05;8.43;;;;;;;;;;4984626;28;20027;-64
2023/03/02 11:35:15;;;;;;;23.55;10.15;;;;;;;;;;4992976;28;20363;-62
2023/03/02 11:37:50;;;;;;;21.67;8.38;;;;;;;;;;4993186;28;20466;-61
2023/03/02 11:40:21;;;;;;;20.00;8.32;;;;;;;;;;4992366;28;20026;-62
2023/03/02 11:42:46;;;;;;;20.30;8.00;;;;;;;;;;4992851;28;20466;-63
2023/03/02 11:45:11;;;;;;;17.03;7.90;;;;;;;;;;4991860;28;20049;-63
2023/03/02 11:47:36;;;;;;;16.77;8.00;;;;;;;;;;4993232;28;20030;-63
2023/03/02 11:50:04;;;;;;;19.60;7.70;;;;;;;;;;4992852;28;20393;-63
2023/03/02 11:52:31;;;;;;;17.05;6.65;;;;;;;;;;4992998;28;20429;-63
2023/03/02 11:55:03;;;;;;;21.17;8.02;;;;;;;;;;4991445;28;20022;-63
2023/03/02 11:57:37;;;;;;;17.70;7.05;;;;;;;;;;4992599;28;20025;-63
2023/03/02 12:00:14;;;;;;;18.58;7.03;;;;;;;;;;4990087;28;20033;-63
2023/03/02 12:02:39;;;;;;;15.93;6.80;;;;;;;;;;4992400;28;20386;-63
2023/03/02 12:05:21;;;;;;;17.10;6.83;;;;;;;;;;4992220;28;20026;-62
2023/03/02 12:07:55;;;;;;;15.93;6.15;;;;;;;;;;4992624;28;20022;-63
2023/03/02 12:10:27;;;;;;;11.75;4.90;;;;;;;;;;4992940;28;20373;-63
2023/03/02 12:13:21;;;;;;;11.82;4.88;;;;;;;;;;4992492;28;20113;-64
2023/03/02 12:15:49;;;;;;;11.32;4.90;;;;;;;;;;4983056;28;20057;-62
2023/03/02 12:18:25;;;;;;;13.48;6.07;;;;;;;;;;4992561;28;20037;-63
2023/03/02 12:21:07;;;;;;;12.45;5.50;;;;;;;;;;4992910;28;20010;-62
2023/03/02 12:23:34;;;;;;;13.50;5.53;;;;;;;;;;4990515;28;20075;-62
2023/03/02 12:26:18;;;;;;;14.10;6.28;;;;;;;;;;4987924;28;20022;-63
2023/03/02 12:28:54;;;;;;;14.25;6.25;;;;;;;;;;4991155;28;20018;-63
2023/03/02 12:31:20;;;;;;;15.77;5.95;;;;;;;;;;4992088;28;20022;-63
2023/03/02 12:33:46;;;;;;;15.02;6.40;;;;;;;;;;4991741;28;20153;-63
2023/03/02 12:36:12;;;;;;;;;;;;;;;;;;4992748;28;20224;-63
2023/03/02 12:38:38;;;;;;;16.60;7.13;;;;;;;;;;4990979;28;20289;-63
2023/03/02 12:41:29;;;;;;;17.30;7.20;;;;;;;;;;4985632;28;20113;-64
2023/03/02 12:44:01;;;;;;;16.73;7.30;;;;;;;;;;4984324;28;20039;-63
2023/03/02 12:46:33;;;;;;;17.70;7.15;;;;;;;;;;4992036;28;20096;-63
2023/03/02 12:49:01;;;;;;;18.02;8.18;;;;;;;;;;4991934;28;20022;-62
2023/03/02 12:51:32;;;;;;;18.48;7.80;;;;;;;;;;4991725;28;20109;-63
2023/03/02 12:54:04;;;;;;;18.35;7.90;;;;;;;;;;4989544;28;20037;-63
2023/03/02 12:56:30;;;;;;;18.10;7.90;;;;;;;;;;4990771;28;20486;-63
2023/03/02 12:58:55;;;;;;;19.83;7.97;;;;;;;;;;4991581;28;20023;-63
2023/03/02 13:01:25;;;;;;;18.70;8.52;;;;;;;;;;4991898;28;20048;-62
2023/03/02 13:03:51;;;;;;;19.27;8.52;;;;;;;;;;4991343;28;20033;-61
2023/03/02 13:06:16;;;;;;;19.95;8.68;;;;;;;;;;4982388;28;20021;-61
2023/03/02 13:08:43;;;;;;;20.23;8.70;;;;;;;;;;4989811;28;20449;-61
2023/03/02 13:11:08;;;;;;;18.83;7.95;;;;;;;;;;4992693;28;20030;-61
2023/03/02 13:13:34;;;;;;;19.38;8.98;;;;;;;;;;4992829;28;20014;-62
2023/03/02 13:16:01;;;;;;;19.85;8.88;;;;;;;;;;4989198;28;20077;-62
2023/03/02 13:18:26;;;;;;;;;;;;;;;;;;4993568;28;20049;-62
2023/03/02 13:20:51;;;;;;;20.93;8.27;;;;;;;;;;4992371;28;20369;-60
2023/03/02 13:23:17;;;;;;;22.33;8.77;;;;;;;;;;4992249;28;20014;-62
2023/03/02 13:25:50;;;;;;;25.52;9.25;;;;;;;;;;4990885;28;20049;-62
2023/03/02 13:28:26;;;;;;;23.13;10.10;;;;;;;;;;4991390;28;20023;-61
2023/03/02 13:30:55;;;;;;;21.75;9.20;;;;;;;;;;4990590;28;20037;-62
2023/03/02 13:33:22;;;;;;;21.55;9.93;;;;;;;;;;4990850;28;20605;-61
2023/03/02 13:35:47;;;;;;;19.83;9.00;;;;;;;;;;4991638;28;20022;-63
2023/03/02 13:38:14;;;;;;;20.47;8.90;;;;;;;;;;4991382;28;20076;-62
2023/03/02 13:40:41;;;;;;;21.65;9.40;;;;;;;;;;4990434;28;20437;-61
2023/03/02 13:43:20;;;;;;;20.13;8.85;;;;;;;;;;4987441;28;20018;-61
2023/03/02 13:45:56;;;;;;;18.80;8.45;;;;;;;;;;4990844;28;20073;-62
2023/03/02 13:48:21;;;;;;;23.98;9.75;;;;;;;;;;4989300;28;20019;-62
2023/03/02 13:50:52;;;;;;;20.48;8.45;;;;;;;;;;4990525;28;20102;-63
2023/03/02 13:53:18;;;;;;;20.02;8.98;;;;;;;;;;4990187;28;20018;-63
2023/03/02 13:55:43;;;;;;;20.05;9.02;;;;;;;;;;4992284;28;20037;-62
2023/03/02 13:58:12;;;;;;;23.33;8.87;;;;;;;;;;4992054;28;20022;-62
2023/03/02 14:00:37;;;;;;;19.92;8.35;;;;;;;;;;4992736;28;20018;-62
2023/03/02 14:03:09;;;;;;;22.20;8.98;;;;;;;;;;4992574;28;20015;-63
2023/03/02 14:05:34;;;;;;;22.33;10.13;;;;;;;;;;4993895;28;20438;-63
2023/03/02 14:07:59;;;;;;;21.48;9.68;;;;;;;;;;4991417;28;20028;-61
2023/03/02 14:10:25;;;;;;;21.65;9.95;;;;;;;;;;4998285;28;20052;-60
2023/03/02 14:13:03;;;;;;;21.85;10.13;;;;;;;;;;4996098;28;20015;-61
2023/03/02 14:15:28;;;;;;;23.10;10.15;;;;;;;;;;4996900;28;20037;-63
2023/03/02 14:17:53;;;;;;;23.17;9.77;;;;;;;;;;4994372;28;20018;-64
2023/03/02 14:20:18;;;;;;;22.37;9.40;;;;;;;;;;4994058;28;20404;-62
2023/03/02 14:22:44;;;;;;;22.27;9.80;;;;;;;;;;4991248;28;20026;-62